createdAt,value
2022-08-28T00:01:24.185Z,101050.47
2022-08-28T00:04:30.146Z,101061.28
2022-08-28T00:07:35.508Z,101059.25
2022-08-28T00:10:42.158Z,101053.88
2022-08-28T00:13:50.088Z,101052.84
2022-08-28T00:16:56.817Z,101058.09
2022-08-28T00:20:02.148Z,101046.81
2022-08-28T00:23:08.808Z,101050.47
2022-08-28T00:26:34.637Z,101059.53
2022-08-28T00:29:40.460Z,101052.69
2022-08-28T00:32:45.808Z,101048.47
2022-08-28T00:35:52.383Z,101052.56
2022-08-28T00:38:59.181Z,101048.16
2022-08-28T00:42:05.509Z,101044.94
2022-08-28T00:45:13.883Z,101037.59
2022-08-28T00:48:19.854Z,101041.72
2022-08-28T00:51:37.532Z,101037.38
2022-08-28T00:54:55.365Z,101047.94
2022-08-28T00:58:05.803Z,101043.09
2022-08-28T01:01:14.487Z,101042.06
2022-08-28T01:04:23.189Z,101040.63
2022-08-28T01:07:29.213Z,101051.00
2022-08-28T01:10:36.240Z,101039.28
2022-08-28T01:13:46.949Z,101046.28
2022-08-28T01:16:56.308Z,101054.06
2022-08-28T01:20:09.445Z,101055.63
2022-08-28T01:23:23.825Z,101057.84
2022-08-28T01:26:32.702Z,101072.47
2022-08-28T01:29:38.031Z,101085.66
2022-08-28T01:32:47.406Z,101081.28
2022-08-28T01:35:52.737Z,101077.44
2022-08-28T01:39:04.009Z,101077.31
2022-08-28T01:42:11.932Z,101069.38
2022-08-28T01:45:20.776Z,101070.72
2022-08-28T01:48:29.095Z,101079.31
2022-08-28T01:51:37.979Z,101076.84
2022-08-28T01:54:43.601Z,101078.88
2022-08-28T01:57:54.603Z,101083.88
2022-08-28T02:01:00.353Z,101085.50
2022-08-28T02:04:07.307Z,101081.38
2022-08-28T02:07:12.751Z,101097.94
2022-08-28T02:10:18.484Z,101093.56
2022-08-28T02:13:26.617Z,101091.59
2022-08-28T02:16:32.534Z,101088.28
2022-08-28T02:19:38.913Z,101081.84
2022-08-28T02:22:45.244Z,101084.91
2022-08-28T02:25:50.910Z,101090.88
2022-08-28T02:28:59.191Z,101088.81
2022-08-28T02:32:06.173Z,101088.84
2022-08-28T02:35:13.620Z,101078.00
2022-08-28T02:38:18.982Z,101082.78
2022-08-28T02:41:24.671Z,101075.31
2022-08-28T02:44:32.657Z,101073.91
2022-08-28T02:47:38.336Z,101080.66
2022-08-28T02:50:44.009Z,101073.91
2022-08-28T02:53:50.567Z,101068.81
2022-08-28T02:56:56.396Z,101066.03
2022-08-28T03:00:04.916Z,101059.59
2022-08-28T03:03:10.180Z,101066.81
2022-08-28T03:06:16.832Z,101056.84
2022-08-28T03:09:22.165Z,101058.47
2022-08-28T03:12:27.864Z,101059.03
2022-08-28T03:15:35.800Z,101056.28
2022-08-28T03:18:41.973Z,101056.56
2022-08-28T03:21:47.737Z,101053.50
2022-08-28T03:24:53.430Z,101053.47
2022-08-28T03:27:58.821Z,101051.13
2022-08-28T03:31:07.170Z,101065.34
2022-08-28T03:34:12.657Z,101060.41
2022-08-28T03:37:18.320Z,101059.78
2022-08-28T03:40:24.180Z,101061.84
2022-08-28T03:43:30.397Z,101060.94
2022-08-28T03:46:39.141Z,101063.00
2022-08-28T03:49:45.512Z,101058.19
2022-08-28T03:52:50.824Z,101065.22
2022-08-28T03:55:56.758Z,101061.97
2022-08-28T03:59:05.368Z,101070.31
2022-08-28T04:02:13.716Z,101073.25
2022-08-28T04:05:19.078Z,101075.16
2022-08-28T04:08:25.054Z,101078.50
2022-08-28T04:11:30.477Z,101070.31
2022-08-28T04:14:36.136Z,101071.75
2022-08-28T04:17:44.189Z,101084.50
2022-08-28T04:20:49.800Z,101084.78
2022-08-28T04:23:55.217Z,101089.81
2022-08-28T04:27:00.845Z,101091.97
2022-08-28T04:30:06.852Z,101093.00
2022-08-28T04:33:18.880Z,101097.63
2022-08-28T04:36:24.177Z,101089.03
2022-08-28T04:39:29.843Z,101084.06
2022-08-28T04:42:35.198Z,101096.94
2022-08-28T04:45:43.552Z,101096.06
2022-08-28T04:48:51.860Z,101094.88
2022-08-28T04:51:57.829Z,101101.03
2022-08-28T04:55:03.345Z,101100.88
2022-08-28T04:58:09.084Z,101100.41
2022-08-28T05:01:21.590Z,101104.78
2022-08-28T05:04:29.871Z,101105.97
2022-08-28T05:07:35.198Z,101105.41
2022-08-28T05:10:40.926Z,101112.13
2022-08-28T05:13:46.746Z,101117.22
2022-08-28T05:16:57.773Z,101112.84
2022-08-28T05:20:06.834Z,101120.00
2022-08-28T05:23:13.200Z,101125.25
2022-08-28T05:26:21.216Z,101114.28
2022-08-28T05:29:26.839Z,101115.94
2022-08-28T05:32:32.200Z,101119.44
2022-08-28T05:35:42.204Z,101123.09
2022-08-28T05:38:47.540Z,101123.81
2022-08-28T05:41:53.178Z,101118.41
2022-08-28T05:44:59.663Z,101119.75
2022-08-28T05:48:05.899Z,101121.66
2022-08-28T05:51:17.031Z,101125.13
2022-08-28T05:54:23.101Z,101134.03
2022-08-28T05:57:28.389Z,101132.28
2022-08-28T06:00:34.025Z,101142.22
2022-08-28T06:03:40.134Z,101138.72
2022-08-28T06:06:49.605Z,101140.91
2022-08-28T06:09:54.977Z,101146.59
2022-08-28T06:13:01.193Z,101147.22
2022-08-28T06:16:07.344Z,101140.06
2022-08-28T06:19:15.049Z,101143.81
2022-08-28T06:22:22.976Z,101139.59
2022-08-28T06:25:28.677Z,101135.50
2022-08-28T06:28:34.078Z,101148.38
2022-08-28T06:31:39.815Z,101156.56
2022-08-28T06:34:45.139Z,101154.25
2022-08-28T06:37:53.433Z,101157.44
2022-08-28T06:41:00.153Z,101163.72
2022-08-28T06:44:06.359Z,101160.22
2022-08-28T06:47:11.797Z,101163.41
2022-08-28T06:50:17.386Z,101165.78
2022-08-28T06:53:27.549Z,101166.06
2022-08-28T06:56:33.296Z,101175.97
2022-08-28T06:59:38.624Z,101175.41
2022-08-28T07:02:44.371Z,101169.56
2022-08-28T07:05:49.713Z,101172.22
2022-08-28T07:08:57.989Z,101167.50
2022-08-28T07:12:03.580Z,101175.25
2022-08-28T07:15:10.593Z,101177.19
2022-08-28T07:18:16.155Z,101184.34
2022-08-28T07:21:21.909Z,101194.59
2022-08-28T07:24:30.593Z,101194.44
2022-08-28T07:27:36.540Z,101200.00
2022-08-28T07:30:41.944Z,101185.78
2022-08-28T07:33:50.093Z,101191.31
2022-08-28T07:37:04.314Z,101197.59
2022-08-28T07:40:14.398Z,101190.13
2022-08-28T07:43:32.178Z,101183.38
2022-08-28T07:46:40.778Z,101197.03
2022-08-28T07:49:46.589Z,101191.00
2022-08-28T07:52:52.253Z,101200.53
2022-08-28T07:56:00.346Z,101194.47
2022-08-28T07:59:06.282Z,101200.47
2022-08-28T08:02:13.196Z,101207.38
2022-08-28T08:05:19.120Z,101196.84
2022-08-28T08:12:03.349Z,101202.78
2022-08-28T08:15:09.889Z,101210.63
2022-08-28T08:18:15.203Z,101216.66
2022-08-28T08:21:29.995Z,101216.16
2022-08-28T08:24:35.904Z,101219.50
2022-08-28T08:27:44.145Z,101219.06
2022-08-28T08:30:49.551Z,101230.56
2022-08-28T08:33:58.698Z,101235.66
2022-08-28T08:37:05.908Z,101235.34
2022-08-28T08:40:15.948Z,101250.31
2022-08-28T08:43:25.517Z,101245.91
2022-08-28T08:46:37.060Z,101252.00
2022-08-28T08:51:21.163Z,101253.34
2022-08-28T08:54:26.857Z,101268.16
2022-08-28T08:57:34.829Z,101274.97
2022-08-28T09:00:55.969Z,101274.72
2022-08-28T09:04:07.454Z,101274.16
2022-08-28T09:07:19.731Z,101270.34
2022-08-28T09:10:26.095Z,101269.28
2022-08-28T09:13:41.960Z,101274.53
2022-08-28T09:16:49.464Z,101275.72
2022-08-28T09:19:55.097Z,101272.66
2022-08-28T09:23:12.333Z,101268.00
2022-08-28T09:26:26.159Z,101266.38
2022-08-28T09:29:35.568Z,101260.94
2022-08-28T09:32:44.674Z,101254.75
2022-08-28T09:35:54.973Z,101262.41
2022-08-28T09:39:25.370Z,101252.31
2022-08-28T09:42:43.138Z,101246.84
2022-08-28T09:45:54.753Z,101249.72
2022-08-28T09:49:12.123Z,101253.38
2022-08-28T09:52:25.384Z,101262.66
2022-08-28T09:55:42.150Z,101260.56
2022-08-28T09:58:49.976Z,101274.25
2022-08-28T10:02:06.611Z,101276.06
2022-08-28T10:05:17.801Z,101270.84
2022-08-28T10:08:39.641Z,101262.22
2022-08-28T10:11:54.998Z,101258.88
2022-08-28T10:15:07.103Z,101262.22
2022-08-28T10:18:24.758Z,101257.16
2022-08-28T10:21:35.129Z,101253.22
2022-08-28T10:24:56.838Z,101250.25
2022-08-28T10:28:23.693Z,101250.25
2022-08-28T10:31:39.148Z,101268.44
2022-08-28T10:34:55.341Z,101265.47
2022-08-28T10:38:12.125Z,101270.16
2022-08-28T10:41:22.831Z,101263.75
2022-08-28T10:44:39.403Z,101270.44
2022-08-28T10:47:47.909Z,101275.84
2022-08-28T10:50:57.994Z,101276.59
2022-08-28T10:54:08.859Z,101282.56
2022-08-28T10:57:31.604Z,101274.31
2022-08-28T11:00:43.381Z,101279.59
2022-08-28T11:03:53.509Z,101280.13
2022-08-28T11:07:03.456Z,101282.16
2022-08-28T11:10:41.722Z,101280.19
2022-08-28T11:13:54.768Z,101285.09
2022-08-28T11:17:05.525Z,101291.09
2022-08-28T11:20:19.351Z,101304.47
2022-08-28T11:23:30.242Z,101301.53
2022-08-28T11:26:44.556Z,101296.41
2022-08-28T11:30:32.939Z,101292.25
2022-08-28T11:33:46.851Z,101295.59
2022-08-28T11:37:02.278Z,101293.13
2022-08-28T11:40:21.195Z,101299.41
2022-08-28T11:43:41.089Z,101310.47
2022-08-28T11:46:47.863Z,101312.34
2022-08-28T11:49:56.484Z,101315.91
2022-08-28T11:53:25.081Z,101313.88
2022-08-28T11:56:55.398Z,101314.94
2022-08-28T12:00:08.893Z,101308.22
2022-08-28T12:03:16.994Z,101307.34
2022-08-28T12:06:52.258Z,101309.53
2022-08-28T12:10:02.897Z,101309.78
2022-08-28T12:13:11.125Z,101302.41
2022-08-28T12:16:17.199Z,101308.66
2022-08-28T12:19:30.137Z,101306.22
2022-08-28T12:22:50.404Z,101298.56
2022-08-28T12:26:05.028Z,101310.75
2022-08-28T12:29:26.864Z,101310.69
2022-08-28T12:32:37.510Z,101317.56
2022-08-28T12:35:43.995Z,101317.41
2022-08-28T12:38:54.952Z,101320.75
2022-08-28T12:42:01.046Z,101320.47
2022-08-28T12:45:10.373Z,101318.75
2022-08-28T12:48:19.811Z,101318.75
2022-08-28T12:51:27.275Z,101309.69
2022-08-28T12:54:35.729Z,101318.78
2022-08-28T12:57:48.140Z,101314.09
2022-08-28T13:00:57.871Z,101306.38
2022-08-28T13:04:07.139Z,101315.00
2022-08-28T13:07:18.760Z,101306.97
2022-08-28T13:10:29.858Z,101311.19
2022-08-28T13:13:40.219Z,101310.44
2022-08-28T13:16:47.551Z,101301.41
2022-08-28T13:20:05.325Z,101304.44
2022-08-28T13:23:10.798Z,101295.88
2022-08-28T13:26:26.781Z,101297.63
2022-08-28T13:29:32.764Z,101294.09
2022-08-28T13:32:42.843Z,101301.69
2022-08-28T13:35:50.643Z,101301.09
2022-08-28T13:38:56.351Z,101305.06
2022-08-28T13:42:09.742Z,101305.06
2022-08-28T13:45:15.951Z,101313.41
2022-08-28T13:48:24.670Z,101321.44
2022-08-28T13:51:30.537Z,101327.06
2022-08-28T13:54:36.230Z,101329.66
2022-08-28T13:57:44.545Z,101326.56
2022-08-28T14:00:52.346Z,101326.56
2022-08-28T14:03:56.413Z,101326.13
2022-08-28T14:07:01.873Z,101311.72
2022-08-28T14:10:08.636Z,101319.31
2022-08-28T14:13:17.535Z,101318.59
2022-08-28T14:16:23.217Z,101319.78
2022-08-28T14:19:28.878Z,101315.56
2022-08-28T14:22:34.553Z,101325.81
2022-08-28T14:25:44.299Z,101326.25
2022-08-28T14:28:52.883Z,101320.84
2022-08-28T14:31:58.847Z,101332.84
2022-08-28T14:35:04.996Z,101328.75
2022-08-28T14:38:10.581Z,101319.66
2022-08-28T14:41:17.593Z,101334.06
2022-08-28T14:44:27.317Z,101326.56
2022-08-28T14:47:33.165Z,101329.41
2022-08-28T14:50:42.195Z,101332.47
2022-08-28T14:53:48.490Z,101333.81
2022-08-28T14:56:54.836Z,101326.81
2022-08-28T15:00:03.105Z,101325.28
2022-08-28T15:03:08.484Z,101327.53
2022-08-28T15:06:14.312Z,101342.97
2022-08-28T15:09:21.945Z,101332.25
2022-08-28T15:12:27.653Z,101342.38
2022-08-28T15:15:35.661Z,101337.66
2022-08-28T15:18:41.739Z,101343.06
2022-08-28T15:21:51.349Z,101341.50
2022-08-28T15:24:57.350Z,101343.09
2022-08-28T15:28:02.692Z,101344.00
2022-08-28T15:31:11.051Z,101339.91
2022-08-28T15:34:22.095Z,101340.94
2022-08-28T15:37:31.549Z,101345.41
2022-08-28T15:40:50.097Z,101343.84
2022-08-28T15:43:57.299Z,101347.66
2022-08-28T15:47:06.321Z,101346.94
2022-08-28T15:50:13.143Z,101347.97
2022-08-28T15:53:18.639Z,101348.09
2022-08-28T15:56:25.440Z,101351.75
2022-08-28T15:59:40.041Z,101356.59
2022-08-28T16:03:01.109Z,101345.91
2022-08-28T16:06:15.412Z,101346.34
2022-08-28T16:09:21.117Z,101346.72
2022-08-28T16:12:26.538Z,101339.97
2022-08-28T16:15:32.348Z,101338.97
2022-08-28T16:18:41.252Z,101336.47
2022-08-28T16:21:46.987Z,101333.91
2022-08-28T16:24:52.856Z,101339.75
2022-08-28T16:27:58.521Z,101339.97
2022-08-28T16:31:19.862Z,101346.25
2022-08-28T16:34:31.689Z,101337.69
2022-08-28T16:37:44.077Z,101346.63
2022-08-28T16:40:50.250Z,101341.06
2022-08-28T16:43:58.415Z,101347.34
2022-08-28T16:47:08.624Z,101342.41
2022-08-28T16:50:22.123Z,101342.53
2022-08-28T16:53:28.922Z,101347.22
2022-08-28T16:56:40.879Z,101344.59
2022-08-28T16:59:53.065Z,101349.84
2022-08-28T17:03:06.139Z,101348.09
2022-08-28T17:06:19.295Z,101358.19
2022-08-28T17:09:26.088Z,101362.13
2022-08-28T17:12:35.655Z,101359.63
2022-08-28T17:15:46.614Z,101373.38
2022-08-28T17:18:53.006Z,101368.13
2022-08-28T17:22:14.985Z,101363.44
2022-08-28T17:25:20.611Z,101373.22
2022-08-28T17:28:26.114Z,101372.72
2022-08-28T17:31:31.879Z,101375.25
2022-08-28T17:34:37.411Z,101377.84
2022-08-28T17:37:46.838Z,101382.28
2022-08-28T17:40:53.430Z,101386.22
2022-08-28T17:43:59.159Z,101386.56
2022-08-28T17:47:04.573Z,101385.56
2022-08-28T17:50:11.744Z,101385.84
2022-08-28T17:53:21.139Z,101391.75
2022-08-28T17:56:35.687Z,101396.38
2022-08-28T17:59:41.605Z,101392.34
2022-08-28T18:02:50.959Z,101393.41
2022-08-28T18:06:01.102Z,101393.47
2022-08-28T18:09:13.162Z,101396.38
2022-08-28T18:12:18.584Z,101395.78
2022-08-28T18:15:24.467Z,101399.34
2022-08-28T18:18:32.288Z,101396.19
2022-08-28T18:21:43.647Z,101405.75
2022-08-28T18:24:55.735Z,101407.84
2022-08-28T18:28:01.451Z,101395.50
2022-08-28T18:31:08.484Z,101407.09
2022-08-28T18:34:21.949Z,101404.81
2022-08-28T18:37:27.773Z,101399.69
2022-08-28T18:40:37.121Z,101396.91
2022-08-28T18:43:42.619Z,101398.03
2022-08-28T18:46:57.113Z,101394.53
2022-08-28T18:50:05.100Z,101397.69
2022-08-28T18:53:10.957Z,101396.81
2022-08-28T18:56:20.514Z,101398.09
2022-08-28T18:59:33.442Z,101388.06
2022-08-28T19:02:41.623Z,101389.91
2022-08-28T19:05:51.290Z,101397.19
2022-08-28T19:09:08.307Z,101388.69
2022-08-28T19:12:16.895Z,101392.84
2022-08-28T19:15:23.180Z,101396.06
2022-08-28T19:18:31.699Z,101391.81
2022-08-28T19:21:39.214Z,101398.72
2022-08-28T19:24:49.990Z,101398.38
2022-08-28T19:28:00.010Z,101398.09
2022-08-28T19:31:08.127Z,101398.38
2022-08-28T19:34:19.557Z,101402.91
2022-08-28T19:37:25.466Z,101402.94
2022-08-28T19:40:31.724Z,101406.44
2022-08-28T19:43:44.491Z,101406.84
2022-08-28T19:46:52.249Z,101411.50
2022-08-28T19:50:01.482Z,101401.41
2022-08-28T19:53:07.968Z,101416.03
2022-08-28T19:56:17.172Z,101407.22
2022-08-28T19:59:28.457Z,101402.47
2022-08-28T20:02:36.608Z,101402.22
2022-08-28T20:05:44.368Z,101396.53
2022-08-28T20:08:51.779Z,101397.94
2022-08-28T20:11:59.436Z,101392.28
2022-08-28T20:15:09.136Z,101397.44
2022-08-28T20:18:19.188Z,101398.72
2022-08-28T20:21:28.860Z,101400.00
2022-08-28T20:24:43.485Z,101394.31
2022-08-28T20:27:49.215Z,101398.34
2022-08-28T20:30:57.353Z,101398.34
2022-08-28T20:34:03.141Z,101400.25
2022-08-28T20:37:08.596Z,101397.13
2022-08-28T20:40:18.334Z,101401.63
2022-08-28T20:43:23.967Z,101400.38
2022-08-28T20:46:36.011Z,101400.63
2022-08-28T20:49:45.305Z,101406.53
2022-08-28T20:52:51.020Z,101399.09
2022-08-28T20:55:58.237Z,101395.97
2022-08-28T20:59:03.940Z,101396.31
2022-08-28T21:02:14.201Z,101405.13
2022-08-28T21:05:20.065Z,101406.41
2022-08-28T21:08:26.052Z,101398.34
2022-08-28T21:11:31.870Z,101398.34
2022-08-28T21:14:37.279Z,101394.19
2022-08-28T21:17:45.530Z,101395.97
2022-08-28T21:20:50.872Z,101393.56
2022-08-28T21:23:57.107Z,101389.94
2022-08-28T21:27:02.525Z,101393.22
2022-08-28T21:30:11.178Z,101397.06
2022-08-28T21:33:19.156Z,101389.53
2022-08-28T21:36:25.109Z,101395.44
2022-08-28T21:39:30.441Z,101396.56
2022-08-28T21:42:36.073Z,101400.09
2022-08-28T21:45:41.823Z,101402.50
2022-08-28T21:48:51.324Z,101408.00
2022-08-28T21:51:56.639Z,101394.28
2022-08-28T21:55:05.004Z,101400.47
2022-08-28T21:58:10.812Z,101401.94
2022-08-28T22:01:18.903Z,101400.31
2022-08-28T22:04:26.851Z,101399.44
2022-08-28T22:07:32.563Z,101401.06
2022-08-28T22:10:40.446Z,101394.38
2022-08-28T22:13:46.652Z,101402.31
2022-08-28T22:16:52.030Z,101398.34
2022-08-28T22:20:00.328Z,101400.97
2022-08-28T22:23:12.111Z,101399.84
2022-08-28T22:26:20.140Z,101405.41
2022-08-28T22:29:25.679Z,101414.00
2022-08-28T22:32:31.371Z,101406.25
2022-08-28T22:35:39.365Z,101409.22
2022-08-28T22:38:47.047Z,101407.06
2022-08-28T22:41:58.561Z,101416.38
2022-08-28T22:45:04.296Z,101412.59
2022-08-28T22:48:10.548Z,101412.59
2022-08-28T22:51:21.231Z,101411.03
2022-08-28T22:54:26.580Z,101414.94
2022-08-28T22:57:32.185Z,101414.50
2022-08-28T23:00:38.515Z,101408.38
2022-08-28T23:03:45.159Z,101410.91
2022-08-28T23:07:00.434Z,101403.81
2022-08-28T23:10:06.965Z,101407.31
2022-08-28T23:13:14.223Z,101401.63
2022-08-28T23:16:24.219Z,101397.66
2022-08-28T23:19:30.339Z,101409.78
2022-08-28T23:22:38.976Z,101409.78
2022-08-28T23:25:44.395Z,101406.16
2022-08-28T23:28:50.394Z,101394.84
2022-08-28T23:31:55.769Z,101404.47
2022-08-28T23:35:01.448Z,101402.09
2022-08-28T23:38:09.852Z,101393.47
2022-08-28T23:41:15.605Z,101397.44
2022-08-28T23:44:20.945Z,101397.44
2022-08-28T23:47:26.647Z,101391.59
2022-08-28T23:50:31.982Z,101397.75
2022-08-28T23:53:40.268Z,101391.91
2022-08-28T23:56:45.701Z,101388.66
2022-08-28T23:59:51.333Z,101392.97
